This is the latest recevied weather packets stored in our database for station/object WO5CID. If no packets are shown the sender has not sent any weather packets the latest 10 day(s).
| Time | Temp. | Humidity | Pressure | Rain* | Wind** | Luminosity | Snow |
|---|---|---|---|---|---|---|---|
| 1777588964 | 26.67° C | 71% | 1008.5 hPa | 0 mm | - | 66 W/m² | - |
| 1777588655 | 27.22° C | 71% | 1008.3 hPa | 0 mm | - | 55 W/m² | - |
| 1777588350 | 27.22° C | 68% | 1008.2 hPa | 0 mm | - | 61 W/m² | - |
| 1777588046 | 27.78° C | 67% | 1008.3 hPa | 0 mm | - | 73 W/m² | - |
| 1777587742 | 27.78° C | 65% | 1008.2 hPa | 0 mm | - | 85 W/m² | - |
| 1777587436 | 28.33° C | 65% | 1008.2 hPa | 0 mm | - | 127 W/m² | - |
| 1777587134 | 28.89° C | 63% | 1008.2 hPa | 0 mm | - | 131 W/m² | - |
| 1777586828 | 28.89° C | 64% | 1008.2 hPa | 0 mm | - | 196 W/m² | - |
| 1777586523 | 28.33° C | 64% | 1008.3 hPa | 0 mm | - | 206 W/m² | - |
| 1777586219 | 28.33° C | 65% | 1008.1 hPa | 0 mm | - | 200 W/m² | - |
| 1777585917 | 27.78° C | 65% | 1008.2 hPa | 0 mm | - | 210 W/m² | - |
| 1777585612 | 28.33° C | 65% | 1008.3 hPa | 0 mm | - | 158 W/m² | - |
| 1777585308 | 28.33° C | 63% | 1008.2 hPa | 0 mm | - | 243 W/m² | - |
| 1777585002 | 27.78° C | 64% | 1008.3 hPa | 0 mm | - | 319 W/m² | - |
| 1777584699 | 26.67° C | 70% | 1008.4 hPa | 0 mm | - | 319 W/m² | - |
| 1777584397 | 25.56° C | 72% | 1008.3 hPa | 0 mm | - | 413 W/m² | - |
| 1777584093 | 25° C | 75% | 1008.5 hPa | 0 mm | - | 245 W/m² | - |
| 1777583792 | 24.44° C | 79% | 1008.5 hPa | 0 mm | - | 246 W/m² | - |
| 1777583487 | 24.44° C | 78% | 1008.8 hPa | 0 mm | - | 227 W/m² | - |
| 1777583182 | 23.89° C | 79% | 1008.6 hPa | 0 mm | - | 290 W/m² | - |
| 1777582877 | 23.89° C | 79% | 1009 hPa | 0 mm | - | 159 W/m² | - |
| 1777582575 | 25° C | 73% | 1009.2 hPa | 0 mm | - | 46 W/m² | - |
| 1777582270 | 27.22° C | 66% | 1008.9 hPa | 0 mm | - | 53 W/m² | - |
| 1777581967 | 28.33° C | 59% | 1008.9 hPa | 0 mm | - | 46 W/m² | - |
| 1777581663 | 29.44° C | 56% | 1008.4 hPa | 0 mm | - | 62 W/m² | - |
* Rain latest hour (hover to see other rain measurements)
** Current wind speed in m/s (hover to see current wind gust speed)